createdAt,value
2023-04-11T00:04:20.900Z,5.55
2023-04-11T00:09:22.972Z,6.13
2023-04-11T00:14:25.143Z,5.47
2023-04-11T00:19:28.243Z,5.15
2023-04-11T00:24:29.853Z,5.20
2023-04-11T00:29:33.985Z,5.60
2023-04-11T00:34:35.841Z,6.13
2023-04-11T00:39:38.357Z,5.40
2023-04-11T00:44:40.315Z,5.43
2023-04-11T00:49:42.074Z,5.05
2023-04-11T00:54:43.723Z,5.07
2023-04-11T00:59:48.368Z,4.95
2023-04-11T01:04:50.995Z,5.57
2023-04-11T01:09:53.491Z,5.20
2023-04-11T01:14:55.583Z,5.15
2023-04-11T01:19:57.828Z,5.22
2023-04-11T01:24:59.476Z,5.35
2023-04-11T01:30:01.621Z,5.20
2023-04-11T01:35:04.409Z,4.90
2023-04-11T01:40:09.533Z,5.43
2023-04-11T01:45:13.035Z,5.13
2023-04-11T01:50:14.686Z,5.10
2023-04-11T01:55:17.156Z,5.18
2023-04-11T02:00:19.640Z,5.38
2023-04-11T02:05:22.142Z,5.43
2023-04-11T02:10:23.929Z,5.25
2023-04-11T02:15:25.619Z,5.38
2023-04-11T02:20:27.954Z,4.93
2023-04-11T02:25:29.698Z,5.28
2023-04-11T02:30:33.840Z,4.50
2023-04-11T02:35:35.518Z,4.57
2023-04-11T02:40:37.283Z,5.20
2023-04-11T02:45:41.995Z,4.72
2023-04-11T02:50:44.990Z,5.78
2023-04-11T02:55:46.901Z,5.22
2023-04-11T03:00:49.482Z,4.57
2023-04-11T03:05:51.350Z,5.05
2023-04-11T03:10:57.692Z,5.25
2023-04-11T03:16:00.426Z,4.65
2023-04-11T03:21:07.551Z,5.28
2023-04-11T03:26:09.723Z,5.50
2023-04-11T03:31:12.914Z,5.28
2023-04-11T03:36:14.924Z,5.05
2023-04-11T03:41:16.966Z,5.07
2023-04-11T03:46:18.882Z,4.70
2023-04-11T03:51:22.247Z,5.25
2023-04-11T03:56:35.644Z,5.03
2023-04-11T04:01:38.124Z,5.47
2023-04-11T04:06:40.686Z,5.22
2023-04-11T04:11:43.331Z,6.70
2023-04-11T04:16:45.639Z,5.70
2023-04-11T04:21:51.871Z,6.32
2023-04-11T04:26:53.778Z,6.38
2023-04-11T04:32:11.108Z,6.57
2023-04-11T04:37:21.986Z,6.55
2023-04-11T04:42:28.762Z,6.50
2023-04-11T04:47:37.776Z,7.07
2023-04-11T04:52:40.007Z,6.82
2023-04-11T04:57:42.871Z,5.88
2023-04-11T05:02:44.868Z,6.63
2023-04-11T05:07:48.397Z,6.60
2023-04-11T05:12:53.231Z,6.75
2023-04-11T05:17:54.907Z,6.60
2023-04-11T05:22:56.621Z,6.82
2023-04-11T05:27:58.365Z,6.50
2023-04-11T05:33:02.094Z,6.43
2023-04-11T05:38:03.924Z,5.97
2023-04-11T05:43:05.929Z,6.32
2023-04-11T05:48:08.237Z,6.38
2023-04-11T05:53:09.872Z,6.50
2023-04-11T05:58:11.607Z,6.70
2023-04-11T06:03:13.417Z,6.60
2023-04-11T06:08:15.232Z,6.70
2023-04-11T06:13:16.866Z,6.57
2023-04-11T06:18:18.429Z,7.00
2023-04-11T06:23:20.026Z,6.70
2023-04-11T06:28:21.720Z,6.85
2023-04-11T06:33:23.427Z,6.63
2023-04-11T06:38:25.093Z,6.40
2023-04-11T06:43:26.692Z,6.80
2023-04-11T06:48:28.310Z,6.45
2023-04-11T06:53:29.954Z,6.57
2023-04-11T06:58:31.581Z,7.03
2023-04-11T07:03:33.526Z,6.05
2023-04-11T07:08:35.708Z,4.85
2023-04-11T07:13:37.828Z,4.28
2023-04-11T07:18:39.493Z,4.28
2023-04-11T07:23:42.322Z,3.85
2023-04-11T07:28:45.132Z,4.00
2023-04-11T07:33:46.949Z,3.63
2023-04-11T07:38:48.626Z,3.33
2023-04-11T07:43:50.340Z,3.10
2023-04-11T07:48:51.947Z,2.67
2023-04-11T07:53:54.438Z,2.70
2023-04-11T07:58:58.210Z,2.80
2023-04-11T08:04:00.505Z,3.00
2023-04-11T08:09:02.618Z,2.80
2023-04-11T08:14:04.250Z,3.20
2023-04-11T08:19:06.842Z,3.00
2023-04-11T08:24:08.585Z,2.55
2023-04-11T08:29:13.028Z,2.92
2023-04-11T08:34:14.634Z,2.80
2023-04-11T08:39:16.261Z,2.45
2023-04-11T08:44:18.014Z,2.70
2023-04-11T08:49:19.584Z,2.33
2023-04-11T08:54:21.300Z,2.25
2023-04-11T08:59:22.949Z,2.55
2023-04-11T09:04:39.366Z,2.40
2023-04-11T09:09:41.020Z,2.22
2023-04-11T09:14:42.707Z,1.88
2023-04-11T09:19:45.642Z,2.03
2023-04-11T09:25:02.434Z,2.03
2023-04-11T09:30:05.804Z,1.60
2023-04-11T09:35:19.717Z,1.55
2023-04-11T09:40:26.287Z,2.00
2023-04-11T09:45:30.895Z,2.10
2023-04-11T09:50:34.242Z,1.75
2023-04-11T09:55:38.694Z,2.20
2023-04-11T10:00:41.494Z,1.63
2023-04-11T10:05:43.256Z,1.90
2023-04-11T10:10:44.906Z,2.03
2023-04-11T10:16:06.100Z,2.15
2023-04-11T10:21:27.631Z,2.10
2023-04-11T10:26:52.093Z,1.83
2023-04-11T10:32:09.655Z,2.08
2023-04-11T10:37:12.551Z,1.88
2023-04-11T10:42:33.829Z,2.15
2023-04-11T10:47:36.009Z,2.10
2023-04-11T10:52:38.381Z,1.90
2023-04-11T10:58:09.708Z,1.77
2023-04-11T11:03:21.972Z,1.42
2023-04-11T11:08:30.311Z,1.50
2023-04-11T11:13:51.598Z,1.30
2023-04-11T11:18:55.097Z,1.23
2023-04-11T11:23:58.551Z,1.48
2023-04-11T11:29:00.428Z,1.00
2023-04-11T11:34:18.292Z,1.30
2023-04-11T11:39:24.287Z,1.58
2023-04-11T11:44:29.835Z,1.60
2023-04-11T11:49:54.732Z,1.70
2023-04-11T11:54:56.387Z,1.40
2023-04-11T12:00:00.282Z,1.42
2023-04-11T12:05:06.479Z,1.50
2023-04-11T12:10:11.798Z,1.50
2023-04-11T12:15:16.987Z,1.40
2023-04-11T12:20:23.327Z,1.50
2023-04-11T12:25:28.116Z,1.30
2023-04-11T12:30:30.200Z,1.30
2023-04-11T12:35:32.298Z,1.40
2023-04-11T12:40:33.941Z,1.20
2023-04-11T12:45:35.569Z,1.63
2023-04-11T12:50:37.167Z,1.50
2023-04-11T12:55:38.824Z,1.50
2023-04-11T13:00:40.441Z,1.50
2023-04-11T13:05:42.053Z,1.70
2023-04-11T13:10:43.741Z,1.88
2023-04-11T13:15:46.459Z,1.80
2023-04-11T13:20:48.036Z,1.63
2023-04-11T13:25:49.705Z,1.60
2023-04-11T13:30:52.103Z,1.90
2023-04-11T13:35:53.691Z,1.40
2023-04-11T13:40:55.656Z,1.50
2023-04-11T13:45:57.313Z,1.42
2023-04-11T13:50:59.829Z,1.33
2023-04-11T13:56:03.747Z,1.85
2023-04-11T14:01:06.710Z,1.55
2023-04-11T14:06:09.144Z,1.40
2023-04-11T14:11:10.925Z,1.30
2023-04-11T14:16:12.805Z,1.20
2023-04-11T14:21:14.538Z,1.00
2023-04-11T14:26:16.556Z,1.70
2023-04-11T14:31:18.281Z,1.73
2023-04-11T14:36:19.976Z,1.80
2023-04-11T14:41:21.592Z,1.40
2023-04-11T14:46:23.285Z,1.50
2023-04-11T14:51:27.347Z,1.30
2023-04-11T14:56:28.941Z,1.05
2023-04-11T15:01:30.772Z,1.17
2023-04-11T15:06:35.304Z,1.00
2023-04-11T15:11:36.960Z,1.20
2023-04-11T15:16:38.583Z,1.20
2023-04-11T15:21:40.209Z,1.10
2023-04-11T15:26:44.534Z,1.10
2023-04-11T15:31:46.291Z,1.20
2023-04-11T15:36:48.320Z,1.10
2023-04-11T15:41:49.935Z,1.20
2023-04-11T15:46:51.665Z,1.25
2023-04-11T15:51:53.363Z,1.20
2023-04-11T15:56:57.625Z,1.23
2023-04-11T16:01:59.338Z,1.45
2023-04-11T16:07:01.061Z,1.70
2023-04-11T16:12:03.067Z,1.55
2023-04-11T16:17:04.681Z,1.63
2023-04-11T16:22:06.300Z,1.65
2023-04-11T16:27:08.251Z,1.50
2023-04-11T16:32:10.357Z,1.60
2023-04-11T16:37:12.094Z,1.52
2023-04-11T16:42:14.269Z,1.67
2023-04-11T16:47:15.914Z,1.80
2023-04-11T16:52:17.532Z,2.10
2023-04-11T16:57:19.444Z,1.73
2023-04-11T17:02:21.144Z,1.90
2023-04-11T17:07:22.865Z,1.85
2023-04-11T17:12:24.517Z,2.10
2023-04-11T17:17:26.195Z,2.08
2023-04-11T17:22:27.796Z,2.13
2023-04-11T17:27:29.975Z,1.83
2023-04-11T17:32:31.684Z,1.70
2023-04-11T17:37:34.007Z,1.65
2023-04-11T17:42:35.636Z,1.30
2023-04-11T17:47:38.912Z,1.70
2023-04-11T17:52:42.645Z,1.60
2023-04-11T17:57:50.505Z,1.70
2023-04-11T18:02:59.195Z,1.50
2023-04-11T18:08:02.616Z,1.67
2023-04-11T18:13:04.276Z,1.45
2023-04-11T18:18:09.654Z,1.60
2023-04-11T18:23:11.460Z,1.75
2023-04-11T18:28:13.080Z,2.00
2023-04-11T18:33:15.032Z,1.95
2023-04-11T18:38:16.664Z,2.50
2023-04-11T18:43:18.280Z,2.75
2023-04-11T18:48:19.901Z,2.65
2023-04-11T18:53:21.524Z,1.63
2023-04-11T18:58:25.624Z,1.40
2023-04-11T19:03:29.033Z,1.55
2023-04-11T19:08:31.061Z,1.50
2023-04-11T19:13:32.961Z,1.67
2023-04-11T19:18:41.185Z,1.80
2023-04-11T19:23:42.880Z,1.50
2023-04-11T19:28:45.315Z,1.48
2023-04-11T19:33:47.130Z,1.80
2023-04-11T19:38:48.967Z,1.60
2023-04-11T19:43:50.734Z,2.05
2023-04-11T19:48:52.590Z,1.90
2023-04-11T19:53:54.388Z,1.60
2023-04-11T19:58:56.600Z,1.30
2023-04-11T20:03:58.706Z,1.52
2023-04-11T20:09:01.292Z,1.90
2023-04-11T20:14:03.406Z,1.80
2023-04-11T20:19:05.238Z,1.85
2023-04-11T20:24:09.572Z,1.80
2023-04-11T20:29:11.242Z,1.65
2023-04-11T20:34:12.881Z,2.10
2023-04-11T20:39:14.502Z,1.95
2023-04-11T20:44:21.122Z,2.15
2023-04-11T20:49:27.933Z,2.10
2023-04-11T20:54:29.990Z,2.28
2023-04-11T20:59:34.205Z,2.25
2023-04-11T21:04:35.980Z,2.55
2023-04-11T21:09:37.658Z,1.95
2023-04-11T21:14:39.325Z,2.55
2023-04-11T21:19:40.925Z,2.55
2023-04-11T21:24:42.627Z,2.75
2023-04-11T21:29:44.235Z,2.60
2023-04-11T21:34:45.839Z,2.70
2023-04-11T21:39:47.462Z,2.70
2023-04-11T21:44:49.072Z,2.50
2023-04-11T21:49:50.909Z,2.40
2023-04-11T21:54:52.530Z,2.53
2023-04-11T21:59:54.153Z,2.55
2023-04-11T22:10:03.826Z,3.00
2023-04-11T22:15:06.593Z,2.60
2023-04-11T22:20:09.006Z,3.22
2023-04-11T22:25:11.405Z,2.63
2023-04-11T22:30:14.457Z,4.45
2023-04-11T22:35:16.167Z,6.30
2023-04-11T22:40:22.183Z,7.05
2023-04-11T22:45:23.957Z,5.10
2023-04-11T22:50:25.636Z,4.50
2023-04-11T22:55:34.344Z,3.75
2023-04-11T23:00:38.272Z,3.05
2023-04-11T23:05:41.088Z,3.20
2023-04-11T23:10:42.689Z,2.72
2023-04-11T23:15:47.131Z,2.90
2023-04-11T23:20:49.429Z,2.95
2023-04-11T23:25:51.227Z,3.28
2023-04-11T23:30:53.712Z,2.90
2023-04-11T23:35:55.389Z,2.95
2023-04-11T23:40:57.000Z,2.50
2023-04-11T23:45:59.791Z,2.65
2023-04-11T23:51:01.467Z,2.83
2023-04-11T23:56:03.208Z,2.85
